MMMY/MTY METAR and TAF weather

Enter ICAO airport designator
Station Type Date Time Source
MMMY METAR 2020/01/18 23:40 UTC NOAA

MMMY 182340Z 00000KT 8SM FEW050 SCT070 23/16 A3013 RMK SLP/// 5//// 9// 8/570


Station Type Date Time Source
MMMY Decoded METAR 2020/01/18 23:40 UTC NOAA

Monterrey / Gen Maria, Mexico (MMMY) 25-47N 100-06W
Jan 18, 2020 - 06:40 PM EST / 2020.01.18 2340 UTC
Wind: Calm:0
Visibility: 8 mile(s):0
Sky conditions: partly cloudy
Temperature: 73 F (23 C)
Dew Point: 60 F (16 C)
Relative Humidity: 64%
Pressure (altimeter): 30.13 in. Hg (1020 hPa)
ob: MMMY 182340Z 00000KT 8SM FEW050 SCT070 23/16 A3013 RMK SLP/// 5//// 9// 8/570
cycle: 23

Station Type Date Time Source
MMMY TAF 2020/01/18 18:26 UTC NOAA

TAF COR MMMY 181719Z 1818/1924 33010KT 5SM HZ SCT020 BKN050 OVC070 TX20/1820Z TN14/1912Z
TEMPO 1822/1902 3SM -SHRA BKN010 OVC020CB
FM190300 33015KT 5SM HZ BKN015 OVC050
TEMPO 1910/1914 1SM BR BKN005 OVC010
FM191600 33010KT 5SM HZ BKN020 BKN050

Example: see airport list